createdAt,value
2022-11-06T00:03:45.982Z,12.44
2022-11-06T00:08:49.896Z,12.45
2022-11-06T00:13:55.467Z,12.59
2022-11-06T00:19:01.092Z,12.58
2022-11-06T00:24:07.260Z,12.53
2022-11-06T00:29:14.836Z,12.53
2022-11-06T00:34:19.039Z,12.56
2022-11-06T00:39:23.020Z,12.45
2022-11-06T00:44:28.355Z,12.61
2022-11-06T00:49:32.765Z,12.58
2022-11-06T00:54:38.715Z,12.49
2022-11-06T00:59:44.266Z,12.56
2022-11-06T01:04:48.534Z,12.49
2022-11-06T01:09:52.583Z,12.58
2022-11-06T01:14:58.091Z,12.52
2022-11-06T01:20:02.096Z,12.42
2022-11-06T01:25:07.099Z,12.30
2022-11-06T01:30:13.925Z,12.45
2022-11-06T01:35:17.859Z,12.37
2022-11-06T01:40:21.763Z,12.34
2022-11-06T01:45:34.697Z,12.30
2022-11-06T01:50:39.316Z,12.28
2022-11-06T01:55:46.491Z,12.50
2022-11-06T02:00:53.438Z,12.25
2022-11-06T02:05:58.980Z,12.41
2022-11-06T02:11:03.269Z,12.27
2022-11-06T02:16:23.176Z,12.36
2022-11-06T02:21:55.268Z,12.46
2022-11-06T02:27:10.408Z,12.38
2022-11-06T02:32:20.259Z,12.31
2022-11-06T02:37:29.525Z,12.20
2022-11-06T02:42:42.191Z,12.14
2022-11-06T02:47:49.028Z,12.11
2022-11-06T02:52:56.102Z,12.24
2022-11-06T02:58:07.779Z,12.01
2022-11-06T03:03:18.360Z,12.00
2022-11-06T03:08:28.007Z,12.13
2022-11-06T03:13:43.993Z,12.09
2022-11-06T03:18:55.852Z,12.12
2022-11-06T03:24:05.863Z,12.12
2022-11-06T03:29:16.075Z,12.07
2022-11-06T03:34:29.261Z,11.97
2022-11-06T03:39:38.302Z,11.94
2022-11-06T03:44:49.718Z,11.98
2022-11-06T03:50:00.197Z,11.97
2022-11-06T03:55:08.816Z,11.95
2022-11-06T04:00:20.517Z,12.06
2022-11-06T04:05:26.371Z,11.94
2022-11-06T04:10:48.328Z,11.79
2022-11-06T04:15:55.256Z,12.00
2022-11-06T04:21:26.787Z,12.08
2022-11-06T04:26:39.515Z,12.00
2022-11-06T04:32:01.758Z,11.98
2022-11-06T04:37:11.490Z,12.02
2022-11-06T04:42:25.639Z,11.80
2022-11-06T04:47:34.586Z,12.01
2022-11-06T04:52:39.363Z,12.17
2022-11-06T04:57:43.682Z,12.39
2022-11-06T05:02:49.219Z,12.00
2022-11-06T05:07:53.123Z,12.06
2022-11-06T05:12:57.014Z,12.14
2022-11-06T05:18:03.892Z,12.08
2022-11-06T05:23:08.054Z,11.88
2022-11-06T05:28:12.498Z,11.79
2022-11-06T05:33:18.180Z,11.88
2022-11-06T05:38:22.118Z,11.91
2022-11-06T05:43:26.448Z,11.82
2022-11-06T05:48:31.827Z,12.05
2022-11-06T05:53:46.006Z,12.21
2022-11-06T05:58:49.963Z,12.42
2022-11-06T06:03:57.499Z,12.37
2022-11-06T06:09:01.531Z,12.60
2022-11-06T06:14:05.580Z,12.83
2022-11-06T06:19:10.976Z,12.95
2022-11-06T06:24:14.944Z,13.04
2022-11-06T06:29:18.909Z,13.04
2022-11-06T06:34:24.227Z,13.11
2022-11-06T06:39:28.280Z,13.32
2022-11-06T06:44:32.408Z,13.33
2022-11-06T06:49:37.714Z,13.46
2022-11-06T06:54:41.851Z,13.42
2022-11-06T06:59:45.856Z,13.55
2022-11-06T07:04:51.230Z,13.64
2022-11-06T07:09:55.402Z,13.70
2022-11-06T07:14:59.499Z,13.80
2022-11-06T07:20:07.831Z,13.88
2022-11-06T07:25:12.659Z,13.98
2022-11-06T07:30:17.156Z,14.09
2022-11-06T07:35:22.649Z,14.13
2022-11-06T07:40:26.649Z,14.08
2022-11-06T07:45:30.629Z,14.14
2022-11-06T07:50:36.246Z,14.17
2022-11-06T07:55:42.757Z,14.28
2022-11-06T08:00:50.386Z,14.13
2022-11-06T08:05:56.031Z,14.28
2022-11-06T08:11:03.357Z,14.24
2022-11-06T08:16:09.115Z,14.16
2022-11-06T08:21:14.871Z,14.17
2022-11-06T08:26:18.968Z,14.35
2022-11-06T08:31:22.947Z,14.38
2022-11-06T08:36:28.259Z,14.40
2022-11-06T08:41:32.172Z,14.47
2022-11-06T08:46:36.164Z,14.55
2022-11-06T08:51:41.521Z,14.59
2022-11-06T08:56:45.440Z,14.66
2022-11-06T09:01:49.536Z,14.85
2022-11-06T09:06:55.408Z,14.68
2022-11-06T09:12:00.270Z,14.71
2022-11-06T09:17:05.130Z,14.84
2022-11-06T09:22:10.528Z,14.66
2022-11-06T09:27:15.869Z,14.67
2022-11-06T09:32:22.471Z,14.58
2022-11-06T09:37:27.788Z,14.71
2022-11-06T09:42:44.453Z,14.64
2022-11-06T09:47:56.476Z,14.70
2022-11-06T09:53:09.580Z,14.84
2022-11-06T09:58:17.479Z,14.92
2022-11-06T10:03:30.767Z,14.11
2022-11-06T10:08:37.139Z,13.34
2022-11-06T10:13:55.863Z,13.15
2022-11-06T10:19:13.629Z,12.83
2022-11-06T10:24:35.886Z,12.70
2022-11-06T10:30:01.763Z,12.66
2022-11-06T10:35:14.489Z,12.47
2022-11-06T10:40:24.373Z,12.36
2022-11-06T10:45:34.122Z,12.43
2022-11-06T10:50:48.726Z,12.40
2022-11-06T10:56:11.162Z,12.41
2022-11-06T11:01:16.302Z,12.57
2022-11-06T11:06:20.247Z,12.46
2022-11-06T11:11:28.980Z,12.33
2022-11-06T11:16:36.032Z,12.30
2022-11-06T11:21:40.016Z,12.32
2022-11-06T11:26:49.093Z,12.38
2022-11-06T11:31:56.605Z,12.56
2022-11-06T11:37:03.936Z,12.80
2022-11-06T11:42:24.707Z,13.00
2022-11-06T11:47:31.203Z,13.14
2022-11-06T11:52:35.216Z,13.22
2022-11-06T11:57:46.054Z,13.39
2022-11-06T12:02:54.373Z,13.40
2022-11-06T12:08:01.004Z,13.18
2022-11-06T12:13:08.264Z,13.03
2022-11-06T12:18:16.816Z,13.13
2022-11-06T12:23:28.767Z,13.34
2022-11-06T12:28:38.628Z,13.40
2022-11-06T12:34:05.709Z,13.23
2022-11-06T12:39:17.604Z,13.19
2022-11-06T12:44:23.574Z,13.17
2022-11-06T12:49:49.768Z,13.15
2022-11-06T12:55:11.569Z,13.00
2022-11-06T13:00:27.160Z,13.11
2022-11-06T13:05:39.211Z,13.14
2022-11-06T13:11:00.651Z,13.25
2022-11-06T13:16:16.558Z,13.32
2022-11-06T13:21:33.274Z,13.30
2022-11-06T13:26:42.841Z,13.24
2022-11-06T13:37:18.345Z,13.27
2022-11-06T13:42:30.146Z,13.52
2022-11-06T13:48:01.911Z,13.50
2022-11-06T13:53:16.831Z,13.44
2022-11-06T13:58:39.530Z,13.30
2022-11-06T14:04:21.986Z,13.27
2022-11-06T14:09:33.848Z,13.16
2022-11-06T14:14:39.041Z,13.05
2022-11-06T14:20:06.030Z,13.03
2022-11-06T14:25:48.447Z,13.22
2022-11-06T14:36:33.600Z,13.19
2022-11-06T14:42:02.648Z,13.18
2022-11-06T14:47:11.669Z,13.17
2022-11-06T14:52:27.064Z,13.14
2022-11-06T14:57:42.263Z,13.22
2022-11-06T15:02:49.665Z,13.23
2022-11-06T15:08:05.308Z,13.18
2022-11-06T15:13:13.308Z,13.12
2022-11-06T15:18:23.116Z,13.05
2022-11-06T15:23:40.862Z,12.97
2022-11-06T15:28:48.575Z,13.05
2022-11-06T15:33:59.871Z,12.88
2022-11-06T15:39:27.641Z,12.97
2022-11-06T15:44:33.468Z,13.22
2022-11-06T15:49:37.570Z,12.99
2022-11-06T15:54:44.460Z,12.93
2022-11-06T15:59:49.485Z,12.80
2022-11-06T16:04:53.587Z,12.79
2022-11-06T16:09:59.509Z,12.72
2022-11-06T16:15:04.322Z,12.59
2022-11-06T16:20:15.284Z,12.67
2022-11-06T16:25:21.782Z,12.87
2022-11-06T16:30:26.404Z,12.60
2022-11-06T16:35:32.619Z,12.43
2022-11-06T16:41:01.636Z,12.35
2022-11-06T16:46:08.506Z,12.22
2022-11-06T16:51:16.313Z,12.28
2022-11-06T16:56:30.047Z,12.46
2022-11-06T17:01:45.155Z,12.03
2022-11-06T17:06:51.914Z,11.91
2022-11-06T17:12:03.302Z,11.79
2022-11-06T17:17:07.555Z,11.76
2022-11-06T17:22:12.530Z,11.86
2022-11-06T17:27:17.965Z,11.80
2022-11-06T17:32:22.226Z,11.64
2022-11-06T17:37:29.953Z,11.41
2022-11-06T17:42:36.129Z,11.20
2022-11-06T17:47:42.659Z,11.26
2022-11-06T17:52:47.466Z,11.27
2022-11-06T17:57:56.168Z,11.28
2022-11-06T18:03:02.182Z,11.15
2022-11-06T18:08:07.157Z,11.25
2022-11-06T18:13:12.880Z,11.18
2022-11-06T18:18:17.459Z,10.92
2022-11-06T18:23:23.748Z,10.84
2022-11-06T18:28:32.357Z,10.95
2022-11-06T18:33:37.475Z,11.23
2022-11-06T18:38:44.387Z,11.27
2022-11-06T18:43:51.354Z,10.97
2022-11-06T18:48:56.918Z,11.24
2022-11-06T18:54:02.579Z,11.26
2022-11-06T18:59:13.794Z,10.99
2022-11-06T19:04:18.531Z,10.97
2022-11-06T19:09:25.205Z,10.98
2022-11-06T19:14:30.593Z,10.52
2022-11-06T19:19:35.218Z,10.63
2022-11-06T19:24:39.941Z,10.50
2022-11-06T19:29:48.459Z,10.40
2022-11-06T19:34:54.947Z,10.55
2022-11-06T19:40:04.375Z,10.36
2022-11-06T19:45:13.174Z,10.35
2022-11-06T19:50:21.974Z,10.27
2022-11-06T19:55:40.224Z,10.26
2022-11-06T20:00:45.902Z,10.18
2022-11-06T20:05:50.032Z,10.56
2022-11-06T20:10:54.647Z,10.51
2022-11-06T20:16:00.745Z,10.33
2022-11-06T20:21:08.116Z,10.12
2022-11-06T20:26:12.421Z,10.22
2022-11-06T20:31:20.309Z,10.23
2022-11-06T20:36:27.369Z,10.01
2022-11-06T20:41:31.960Z,10.23
2022-11-06T20:46:39.416Z,10.12
2022-11-06T20:52:11.989Z,10.05
2022-11-06T20:57:07.924Z,9.92
2022-11-06T21:02:13.990Z,9.71
2022-11-06T21:07:18.361Z,9.69
2022-11-06T21:12:24.302Z,9.84
2022-11-06T21:17:30.344Z,9.74
2022-11-06T21:22:34.395Z,9.65
2022-11-06T21:27:39.873Z,9.85
2022-11-06T21:32:46.581Z,9.55
2022-11-06T21:37:50.771Z,9.51
2022-11-06T21:42:56.321Z,9.60
2022-11-06T21:48:05.612Z,9.97
2022-11-06T21:53:32.792Z,9.83
2022-11-06T21:58:37.800Z,9.61
2022-11-06T22:03:43.428Z,9.42
2022-11-06T22:08:48.701Z,9.47
2022-11-06T22:13:54.995Z,9.53
2022-11-06T22:19:01.589Z,9.32
2022-11-06T22:24:06.708Z,9.27
2022-11-06T22:29:13.672Z,9.25
2022-11-06T22:34:19.181Z,9.40
2022-11-06T22:39:23.240Z,9.34
2022-11-06T22:44:29.053Z,9.10
2022-11-06T22:49:34.535Z,9.11
2022-11-06T22:54:38.783Z,9.41
2022-11-06T22:59:42.993Z,9.20
2022-11-06T23:04:48.414Z,9.18
2022-11-06T23:09:52.464Z,9.24
2022-11-06T23:14:59.056Z,9.06
2022-11-06T23:20:05.048Z,8.87
2022-11-06T23:25:11.624Z,8.67
2022-11-06T23:30:16.273Z,8.56
2022-11-06T23:35:22.937Z,8.58
2022-11-06T23:40:27.226Z,8.58
2022-11-06T23:45:49.681Z,8.39
2022-11-06T23:50:55.189Z,8.75
2022-11-06T23:55:59.934Z,8.92
